Leader — WCY8495 — position and weather

sailwx.info

Track history (hours):
 
Tides and Currents Weather Stations Pressure Air Temp Water Temp Dewpoint Dewpoint Depression Visibility Wind Speed Wind Dir Waves Ship Positions

Leader

Owner: Crowley Marine Services, SEATTLE, WA. More information available from US FCC via Universal Licensing System and Coast Guard Vessel Documentation Center.

Last reported at 2017-Oct-19 02:01 UTC. Time now 2017-Oct-19 02:04 UTC.
Position N 33°43' W 118°16'.

Length 30 m; draft 4.9 m.

Type: Tug. MMSI: 366760650.

Date/timePositionNaut miles runAvg speedWind from/ knotsBaromVisibWave heightAir tempDewpointWater temp
2017-Oct-19 02:01N 33°43' W 118°16'1 2.7
2017-Oct-19 01:30N 33°43' W 118°15'1 2.4
2017-Oct-19 01:01N 33°43' W 118°13'3 5.6
2017-Oct-19 00:30N 33°46' W 118°13'1 1.4
2017-Oct-19 00:01N 33°46' W 118°14'0 0.1
2017-Oct-18 23:30N 33°46' W 118°14'2 3.8
2017-Oct-18 23:00N 33°44' W 118°13'3 5.7
2017-Oct-18 22:30N 33°44' W 118°16'1 1.3
2017-Oct-18 22:00N 33°44' W 118°17'0 0.0
2017-Oct-18 21:30N 33°44' W 118°17'0 0.0
2017-Oct-18 21:00N 33°44' W 118°17'0 0.0
2017-Oct-18 20:30N 33°44' W 118°17'0 0.4
2017-Oct-18 20:00N 33°44' W 118°17'0 0.5
2017-Oct-18 19:30N 33°44' W 118°16'1 1.9
2017-Oct-18 19:00N 33°43' W 118°16'3 6.8
2017-Oct-18 18:30N 33°45' W 118°13'1 2.2
2017-Oct-18 18:00N 33°46' W 118°13'2 3.8
2017-Oct-18 17:31N 33°44' W 118°13'3 5.6
2017-Oct-18 17:00N 33°44' W 118°16'1 1.2
2017-Oct-18 16:30N 33°44' W 118°17'0 0.0
2017-Oct-18 15:59N 33°44' W 118°17'0 0.0
2017-Oct-18 15:26N 33°44' W 118°17'0 0.0
2017-Oct-18 14:58N 33°44' W 118°17'0 0.0
2017-Oct-18 13:56N 33°44' W 118°17'0 0.0
2017-Oct-18 13:30N 33°44' W 118°17'0 0.0
2017-Oct-18 13:00N 33°44' W 118°17'0 0.0
2017-Oct-18 12:21N 33°44' W 118°17'0 0.7
2017-Oct-18 12:00N 33°44' W 118°17'1 1.9
2017-Oct-18 11:30N 33°45' W 118°16'0 0.9
2017-Oct-18 10:58N 33°46' W 118°17'0 1.0
2017-Oct-18 10:30N 33°45' W 118°16'0 0.0
2017-Oct-18 10:00N 33°45' W 118°16'0 0.0
2017-Oct-18 09:30N 33°45' W 118°16'1 1.1
2017-Oct-18 09:00N 33°45' W 118°17'1 1.1
2017-Oct-18 08:30N 33°45' W 118°16'3 6.0
2017-Oct-18 08:00N 33°42' W 118°15'1 2.1
2017-Oct-18 07:30N 33°41' W 118°15'2 4.2
2017-Oct-18 07:00N 33°43' W 118°14'2 2.7
2017-Oct-18 06:20N 33°45' W 118°13'0 0.0
2017-Oct-18 05:59N 33°45' W 118°13'0 0.0
2017-Oct-18 05:28N 33°45' W 118°13'0 0.4
2017-Oct-18 05:00N 33°45' W 118°13'0 0.9
2017-Oct-18 04:28N 33°45' W 118°13'0 0.1
2017-Oct-18 04:00N 33°45' W 118°13'1 2.0
2017-Oct-18 03:30N 33°44' W 118°13'3 5.5
2017-Oct-18 03:00N 33°44' W 118°16'1 1.8
2017-Oct-18 02:30N 33°44' W 118°17'0 0.0
2017-Oct-18 01:57N 33°44' W 118°17'0 0.0
2017-Oct-18 01:23N 33°44' W 118°17'1 3.1
2017-Oct-18 01:00N 33°43' W 118°16'2 4.0
2017-Oct-18 00:30N 33°45' W 118°16'1 1.9
2017-Oct-17 23:59N 33°46' W 118°15'2 3.4
2017-Oct-17 23:30N 33°45' W 118°16'1 1.1
2017-Oct-17 22:56N 33°44' W 118°17'0 0.5
2017-Oct-17 22:27N 33°44' W 118°17'0 0.0
2017-Oct-17 21:58N 33°44' W 118°17'0 0.0
2017-Oct-17 21:30N 33°44' W 118°17'0 0.0
2017-Oct-17 21:00N 33°44' W 118°17'0 0.0
2017-Oct-17 20:29N 33°44' W 118°17'0 0.0
2017-Oct-17 19:59N 33°44' W 118°17'0 0.0
2017-Oct-17 19:30N 33°44' W 118°17'0 0.0
2017-Oct-17 19:00N 33°44' W 118°17'0 0.0
2017-Oct-17 18:30N 33°44' W 118°17'0 0.0
2017-Oct-17 18:00N 33°44' W 118°17'0 0.0
2017-Oct-17 17:30N 33°44' W 118°17'1 1.3
2017-Oct-17 17:00N 33°44' W 118°16'0 0.0
2017-Oct-17 16:27N 33°44' W 118°16'0 0.0
2017-Oct-17 15:59N 33°44' W 118°16'0 0.0
2017-Oct-17 14:59N 33°44' W 118°16'1 1.8
2017-Oct-17 14:25N 33°45' W 118°16'1 1.5
2017-Oct-17 13:48N 33°46' W 118°16'0 0.0
2017-Oct-17 13:29N 33°46' W 118°16'0 0.2
2017-Oct-17 12:49N 33°46' W 118°16'0 0.9
2017-Oct-17 12:29N 33°45' W 118°16'1 3.0
2017-Oct-17 12:00N 33°44' W 118°16'3 5.2
2017-Oct-17 11:24N 33°42' W 118°13'1 1.6
2017-Oct-17 10:51N 33°42' W 118°15'3 7.6
2017-Oct-17 10:30N 33°44' W 118°13'1 1.2
2017-Oct-17 09:53N 33°45' W 118°13'0 0.0
2017-Oct-17 09:23N 33°45' W 118°13'0 0.0
2017-Oct-17 08:51N 33°45' W 118°13'0 0.4
2017-Oct-17 07:45N 33°45' W 118°13'0 0.0
2017-Oct-17 07:27N 33°45' W 118°13'0 0.0
2017-Oct-17 07:00N 33°45' W 118°13'0 0.0
2017-Oct-17 06:30N 33°45' W 118°13'1 1.7
2017-Oct-17 05:59N 33°45' W 118°13'2 3.2
2017-Oct-17 05:30N 33°44' W 118°11'1 1.6
2017-Oct-17 05:00N 33°44' W 118°12'1 1.5
2017-Oct-17 04:30N 33°44' W 118°13'1 2.2
2017-Oct-17 04:00N 33°45' W 118°13'0 0.1
2017-Oct-17 03:29N 33°46' W 118°13'0 0.2
2017-Oct-17 02:58N 33°45' W 118°13'0 0.0
2017-Oct-17 02:15N 33°46' W 118°13'0 0.0
2017-Oct-17 01:51N 33°46' W 118°13'1 3.6
2017-Oct-17 01:27N 33°44' W 118°13'3 5.7
2017-Oct-17 01:00N 33°44' W 118°16'2 3.8
2017-Oct-17 00:30N 33°45' W 118°17'0 0.6
2017-Oct-17 00:00N 33°46' W 118°17'1 1.6
2017-Oct-16 23:30N 33°45' W 118°16'1 1.1
2017-Oct-16 22:59N 33°44' W 118°17'0 0.0
2017-Oct-16 22:30N 33°44' W 118°17'0 0.0
2017-Oct-16 22:00N 33°44' W 118°17'0 0.9
2017-Oct-16 21:30N 33°45' W 118°16'0 0.6
2017-Oct-16 21:00N 33°45' W 118°16'2 3.3
2017-Oct-16 20:31N 33°43' W 118°16'1 2.8
2017-Oct-16 20:00N 33°43' W 118°15'2 4.7
2017-Oct-16 19:30N 33°44' W 118°17'0 0.0
2017-Oct-16 19:00N 33°44' W 118°17'0 0.9
2017-Oct-16 18:30N 33°44' W 118°16'0 0.0
2017-Oct-16 18:00N 33°44' W 118°16'0 0.6
2017-Oct-16 17:30N 33°44' W 118°16'1 2.0
2017-Oct-16 17:00N 33°43' W 118°16'3 5.6
2017-Oct-16 16:30N 33°45' W 118°13'2 3.2
2017-Oct-16 16:01N 33°46' W 118°13'0 0.1
2017-Oct-16 15:30N 33°46' W 118°13'0 0.6
2017-Oct-16 14:57N 33°46' W 118°14'0 0.0
2017-Oct-16 14:30N 33°46' W 118°14'0 0.0
2017-Oct-16 13:30N 33°46' W 118°14'1 2.0
2017-Oct-16 12:50N 33°45' W 118°13'0 0.0
2017-Oct-16 11:47N 33°45' W 118°13'1 2.6
2017-Oct-16 11:16N 33°45' W 118°15'0 0.3
2017-Oct-16 10:57N 33°45' W 118°14'2 3.5
2017-Oct-16 10:29N 33°44' W 118°13'1 1.8
2017-Oct-16 09:47N 33°44' W 118°11'1 3.9
2017-Oct-16 09:29N 33°44' W 118°13'1 2.0
2017-Oct-16 08:59N 33°45' W 118°13'0 0.0
2017-Oct-16 08:28N 33°45' W 118°13'0 0.0
2017-Oct-16 08:00N 33°45' W 118°13'1 2.3
2017-Oct-16 07:30N 33°44' W 118°12'0 0.7
2017-Oct-16 06:56N 33°45' W 118°12'1 1.8
2017-Oct-16 06:30N 33°45' W 118°13'0 0.0
2017-Oct-16 06:00N 33°45' W 118°13'0 0.0
2017-Oct-16 05:30N 33°45' W 118°13'0 0.0
2017-Oct-16 05:00N 33°45' W 118°13'0 0.0
2017-Oct-16 04:30N 33°45' W 118°13'0 0.5
2017-Oct-16 03:57N 33°46' W 118°13'0 0.0
2017-Oct-16 03:30N 33°46' W 118°13'0 0.0
2017-Oct-16 03:00N 33°46' W 118°13'0 0.0
2017-Oct-16 02:30N 33°46' W 118°13'0 0.0
2017-Oct-16 01:55N 33°46' W 118°13'0 0.5
2017-Oct-16 01:30N 33°45' W 118°13'1 2.4
2017-Oct-16 01:01N 33°44' W 118°12'2 4.6
2017-Oct-16 00:28N 33°42' W 118°11'0 0.7
2017-Oct-16 00:00N 33°42' W 118°11'0 0.3
2017-Oct-15 23:30N 33°42' W 118°11'2 4.5
2017-Oct-15 23:00N 33°44' W 118°12'1 2.6
2017-Oct-15 22:30N 33°45' W 118°13'0 0.0
2017-Oct-15 22:01N 33°45' W 118°13'0 0.5
2017-Oct-15 21:29N 33°45' W 118°13'0 0.3
2017-Oct-15 20:59N 33°45' W 118°13'0 0.0
2017-Oct-15 20:30N 33°45' W 118°13'0 0.0
2017-Oct-15 20:00N 33°45' W 118°13'0 0.0
2017-Oct-15 19:30N 33°45' W 118°13'0 0.0
2017-Oct-15 19:00N 33°45' W 118°13'0 0.0
2017-Oct-15 18:30N 33°45' W 118°13'0 0.0
2017-Oct-15 17:59N 33°45' W 118°13'0 0.0
2017-Oct-15 17:30N 33°45' W 118°13'1 2.4
2017-Oct-15 16:56N 33°46' W 118°13'0 0.0
2017-Oct-15 16:29N 33°46' W 118°13'1 1.8
2017-Oct-15 16:00N 33°45' W 118°13'2 4.0
2017-Oct-15 15:30N 33°44' W 118°12'3 5.9
2017-Oct-15 14:58N 33°41' W 118°11'4 4.4
2017-Oct-15 14:00N 33°45' W 118°12'0 0.2
2017-Oct-15 13:30N 33°45' W 118°12'1 1.5
2017-Oct-15 13:00N 33°44' W 118°13'1 2.6
2017-Oct-15 12:30N 33°45' W 118°14'1 1.0
2017-Oct-15 12:01N 33°45' W 118°14'1 1.5
2017-Oct-15 11:30N 33°45' W 118°14'3 5.5
2017-Oct-15 11:00N 33°43' W 118°16'1 2.9
2017-Oct-15 10:30N 33°44' W 118°17'0 0.0
2017-Oct-15 10:01N 33°44' W 118°17'0 0.0
2017-Oct-15 09:30N 33°44' W 118°17'0 0.0
2017-Oct-15 09:01N 33°44' W 118°17'0 0.0
2017-Oct-15 08:30N 33°44' W 118°17'0 0.0
2017-Oct-15 08:01N 33°44' W 118°17'0 0.0
2017-Oct-15 07:30N 33°44' W 118°17'0 0.0
2017-Oct-15 07:00N 33°44' W 118°17'0 0.0
2017-Oct-15 06:31N 33°44' W 118°17'0 0.0
2017-Oct-15 06:00N 33°44' W 118°17'0 0.0
2017-Oct-15 05:31N 33°44' W 118°17'0 0.0
2017-Oct-15 05:00N 33°44' W 118°17'0 0.0
2017-Oct-15 04:30N 33°44' W 118°17'2 4.7
2017-Oct-15 04:00N 33°43' W 118°14'3 5.5
2017-Oct-15 03:31N 33°45' W 118°13'0 0.2
2017-Oct-15 03:00N 33°46' W 118°13'0 0.0
2017-Oct-15 02:30N 33°46' W 118°13'0 0.0
2017-Oct-15 02:01N 33°46' W 118°13'0 0.0
2017-Oct-15 01:30N 33°46' W 118°13'0 0.2
2017-Oct-15 01:00N 33°45' W 118°13'1 1.4
2017-Oct-15 00:31N 33°45' W 118°13'2 4.1
2017-Oct-15 00:00N 33°43' W 118°11'1 1.9
2017-Oct-14 23:30N 33°43' W 118°11'1 1.0
2017-Oct-14 22:58N 33°42' W 118°11'3 7.0
2017-Oct-14 22:31N 33°43' W 118°15'2 4.2
2017-Oct-14 22:01N 33°44' W 118°17'0 0.0
2017-Oct-14 21:30N 33°44' W 118°17'0 0.0
2017-Oct-14 21:00N 33°44' W 118°17'0 0.0
2017-Oct-14 20:30N 33°44' W 118°17'0 0.0
2017-Oct-14 20:00N 33°44' W 118°17'0 0.0
2017-Oct-14 19:30N 33°44' W 118°17'0 0.0
2017-Oct-14 19:01N 33°44' W 118°17'0 0.0
2017-Oct-14 18:30N 33°44' W 118°17'0 0.0
2017-Oct-14 17:59N 33°44' W 118°17'0 0.0
2017-Oct-14 17:30N 33°44' W 118°17'0 0.0
2017-Oct-14 17:00N 33°44' W 118°17'0 0.0
2017-Oct-14 16:30N 33°44' W 118°17'0 0.0
2017-Oct-14 16:01N 33°44' W 118°17'0 0.0
2017-Oct-14 15:30N 33°44' W 118°17'0 0.0
2017-Oct-14 14:59N 33°44' W 118°17'0 0.0
2017-Oct-14 14:30N 33°44' W 118°17'0 0.0
2017-Oct-14 14:00N 33°44' W 118°17'0 0.0
2017-Oct-14 13:29N 33°44' W 118°17'0 0.0
2017-Oct-14 13:01N 33°44' W 118°17'0 0.0
2017-Oct-14 12:31N 33°44' W 118°17'0 0.0
2017-Oct-14 12:00N 33°44' W 118°17'0 0.0
2017-Oct-14 11:30N 33°44' W 118°17'0 0.0
2017-Oct-14 11:00N 33°44' W 118°17'0 0.0
2017-Oct-14 10:30N 33°44' W 118°17'0 0.0
2017-Oct-14 10:00N 33°44' W 118°17'0 0.0
2017-Oct-14 09:30N 33°44' W 118°17'0 0.0
2017-Oct-14 09:00N 33°44' W 118°17'0 0.0
2017-Oct-14 08:31N 33°44' W 118°17'0 0.0
2017-Oct-14 08:00N 33°44' W 118°17'0 0.0
2017-Oct-14 07:31N 33°44' W 118°17'0 0.0
2017-Oct-14 07:00N 33°44' W 118°17'0 0.0
2017-Oct-14 06:31N 33°44' W 118°17'0 0.0
2017-Oct-14 06:01N 33°44' W 118°17'0 0.0
2017-Oct-14 05:31N 33°44' W 118°17'0 0.0
2017-Oct-14 05:00N 33°44' W 118°17'0 0.0
2017-Oct-14 04:30N 33°44' W 118°17'0 0.0
2017-Oct-14 04:00N 33°44' W 118°17'0 0.0
2017-Oct-14 03:30N 33°44' W 118°17'0 0.0
2017-Oct-14 03:00N 33°44' W 118°17'0 0.0
2017-Oct-14 02:31N 33°44' W 118°17'0 0.0
2017-Oct-14 02:00N 33°44' W 118°17'0 0.0
2017-Oct-14 01:30N 33°44' W 118°17'0 0.0
2017-Oct-14 01:01N 33°44' W 118°17'0 0.0
2017-Oct-14 00:30N 33°44' W 118°17'0 0.0
2017-Oct-14 00:00N 33°44' W 118°17'0 0.0
2017-Oct-13 23:30N 33°44' W 118°17'0 0.0
2017-Oct-13 23:01N 33°44' W 118°17'0 0.0
2017-Oct-13 22:28N 33°44' W 118°17'0 0.0
2017-Oct-13 22:01N 33°44' W 118°17'0 0.0
2017-Oct-13 21:30N 33°44' W 118°17'0 0.0
2017-Oct-13 21:00N 33°44' W 118°17'0 0.0
2017-Oct-13 20:28N 33°44' W 118°17'0 0.0
2017-Oct-13 20:00N 33°44' W 118°17'0 0.0
2017-Oct-13 19:29N 33°44' W 118°17'0 0.0
2017-Oct-13 19:00N 33°44' W 118°17'0 0.0
2017-Oct-13 18:30N 33°44' W 118°17'0 1.0
2017-Oct-13 18:00N 33°44' W 118°16'0 0.7
2017-Oct-13 17:30N 33°44' W 118°17'2 3.4
2017-Oct-13 17:00N 33°46' W 118°16'0 0.1
2017-Oct-13 16:30N 33°46' W 118°16'1 1.1
2017-Oct-13 16:00N 33°45' W 118°16'1 2.1
2017-Oct-13 15:30N 33°44' W 118°17'0 0.3
2017-Oct-13 15:00N 33°44' W 118°17'0 0.0
2017-Oct-13 14:30N 33°44' W 118°17'0 0.0
2017-Oct-13 14:00N 33°44' W 118°17'1 2.1
2017-Oct-13 13:30N 33°43' W 118°16'2 3.3
2017-Oct-13 13:01N 33°45' W 118°16'0 0.5
2017-Oct-13 12:30N 33°45' W 118°16'0 0.3
2017-Oct-13 12:01N 33°45' W 118°16'1 1.4
2017-Oct-13 11:30N 33°44' W 118°17'0 0.0
2017-Oct-13 11:00N 33°44' W 118°17'2 4.1
2017-Oct-13 10:31N 33°43' W 118°15'4 8.7
2017-Oct-13 10:00N 33°44' W 118°10'2 4.4
2017-Oct-13 09:31N 33°44' W 118°12'3 6.5
2017-Oct-13 09:01N 33°44' W 118°16'0 0.5
2017-Oct-13 08:30N 33°44' W 118°16'0 0.2
2017-Oct-13 07:58N 33°44' W 118°17'0 0.5
2017-Oct-13 07:30N 33°44' W 118°17'0 0.0
2017-Oct-13 07:01N 33°44' W 118°17'0 0.0
2017-Oct-13 06:30N 33°44' W 118°17'0 0.0
2017-Oct-13 06:00N 33°44' W 118°17'0 0.0
2017-Oct-13 05:30N 33°44' W 118°17'0 0.0
2017-Oct-13 05:00N 33°44' W 118°17'0 0.0
2017-Oct-13 04:30N 33°44' W 118°17'0 0.0
2017-Oct-13 04:01N 33°44' W 118°17'0 0.0
2017-Oct-13 03:30N 33°44' W 118°17'0 0.0
2017-Oct-13 03:01N 33°44' W 118°17'0 0.0
2017-Oct-13 02:31N 33°44' W 118°17'0 0.0
2017-Oct-13 02:00N 33°44' W 118°17'0 0.0
2017-Oct-13 01:30N 33°44' W 118°17'0 0.0
2017-Oct-13 00:59N 33°44' W 118°17'0 0.0
2017-Oct-13 00:30N 33°44' W 118°17'0 0.0
2017-Oct-12 23:59N 33°44' W 118°17'0 0.0
2017-Oct-12 23:30N 33°44' W 118°17'0 0.0
2017-Oct-12 23:00N 33°44' W 118°17'0 0.0
2017-Oct-12 22:29N 33°44' W 118°17'0 0.0
2017-Oct-12 22:00N 33°44' W 118°17'0 0.0
2017-Oct-12 21:30N 33°44' W 118°17'0 0.0
2017-Oct-12 21:00N 33°44' W 118°17'0 0.0
2017-Oct-12 20:30N 33°44' W 118°17'0 0.0
2017-Oct-12 19:59N 33°44' W 118°17'0 0.0
2017-Oct-12 19:30N 33°44' W 118°17'0 0.0
2017-Oct-12 18:57N 33°44' W 118°17'0 0.0
2017-Oct-12 18:28N 33°44' W 118°17'0 0.0
2017-Oct-12 18:00N 33°44' W 118°17'0 0.0
2017-Oct-12 17:30N 33°44' W 118°17'0 0.0
2017-Oct-12 17:00N 33°44' W 118°17'0 0.0
2017-Oct-12 16:28N 33°44' W 118°17'0 0.0
2017-Oct-12 16:01N 33°44' W 118°17'0 0.0
2017-Oct-12 15:30N 33°44' W 118°17'0 0.0
2017-Oct-12 15:00N 33°44' W 118°17'0 0.0
2017-Oct-12 14:29N 33°44' W 118°17'0 0.0
2017-Oct-12 14:00N 33°44' W 118°17'0 0.0
2017-Oct-12 13:29N 33°44' W 118°17'0 0.0
2017-Oct-12 13:01N 33°44' W 118°17'0 0.0
2017-Oct-12 12:28N 33°44' W 118°17'0 0.0
2017-Oct-12 12:00N 33°44' W 118°17'0 0.0
2017-Oct-12 11:29N 33°44' W 118°17'0 0.0
2017-Oct-12 11:00N 33°44' W 118°17'0 0.0
2017-Oct-12 10:31N 33°44' W 118°17'0 0.0
2017-Oct-12 10:00N 33°44' W 118°17'0 0.0
2017-Oct-12 09:30N 33°44' W 118°17'0 0.0
2017-Oct-12 09:00N 33°44' W 118°17'0 0.0
2017-Oct-12 08:26N 33°44' W 118°17'0 0.0
2017-Oct-12 08:01N 33°44' W 118°17'0 0.0
2017-Oct-12 07:30N 33°44' W 118°17'0 0.0
2017-Oct-12 07:01N 33°44' W 118°17'0 0.0
2017-Oct-12 06:30N 33°44' W 118°17'0 0.0
2017-Oct-12 06:01N 33°44' W 118°17'0 0.0
2017-Oct-12 05:29N 33°44' W 118°17'0 0.0
2017-Oct-12 05:01N 33°44' W 118°17'0 0.0
2017-Oct-12 04:30N 33°44' W 118°17'0 0.0
2017-Oct-12 03:58N 33°44' W 118°17'0 0.0
2017-Oct-12 03:30N 33°44' W 118°17'0 0.0
2017-Oct-12 03:00N 33°44' W 118°17'0 0.0
2017-Oct-12 02:27N 33°44' W 118°17'0 0.0
2017-Oct-12 02:01N 33°44' W 118°17'0 0.0
2017-Oct-12 01:30N 33°44' W 118°17'0 0.0
2017-Oct-12 01:00N 33°44' W 118°17'0 0.0
2017-Oct-12 00:31N 33°44' W 118°17'0 0.0
2017-Oct-11 23:59N 33°44' W 118°17'0 0.0
2017-Oct-11 23:30N 33°44' W 118°17'0 0.0
2017-Oct-11 23:00N 33°44' W 118°17'0 0.0
2017-Oct-11 22:30N 33°44' W 118°17'0 0.0
2017-Oct-11 22:01N 33°44' W 118°17'0 0.0
2017-Oct-11 21:30N 33°44' W 118°17'0 0.0
2017-Oct-11 21:01N 33°44' W 118°17'0 0.0
2017-Oct-11 20:30N 33°44' W 118°17'0 0.0
2017-Oct-11 20:01N 33°44' W 118°17'0 0.0
2017-Oct-11 19:31N 33°44' W 118°17'0 0.0
2017-Oct-11 19:00N 33°44' W 118°17'0 0.0
2017-Oct-11 18:30N 33°44' W 118°17'0 0.0
2017-Oct-11 18:00N 33°44' W 118°17'0 0.0
2017-Oct-11 17:30N 33°44' W 118°17'0 0.0
2017-Oct-11 17:00N 33°44' W 118°17'0 0.0
2017-Oct-11 00:01N 33°44' W 118°17'0 0.0
2017-Oct-10 23:30N 33°44' W 118°17'0 0.0
2017-Oct-10 23:00N 33°44' W 118°17'0 0.0
2017-Oct-10 22:30N 33°44' W 118°17'0 0.0
2017-Oct-10 22:00N 33°44' W 118°17'0 0.0
2017-Oct-10 21:31N 33°44' W 118°17'0 0.0
2017-Oct-10 21:00N 33°44' W 118°17'0 0.0
2017-Oct-10 20:30N 33°44' W 118°17'0 0.0
2017-Oct-10 20:00N 33°44' W 118°17'0 0.0
2017-Oct-10 19:31N 33°44' W 118°17'0 0.0
2017-Oct-10 19:01N 33°44' W 118°17'0 0.0
2017-Oct-10 18:31N 33°44' W 118°17'0 0.0
2017-Oct-10 18:00N 33°44' W 118°17'0 0.0
2017-Oct-10 17:30N 33°44' W 118°17'0 0.0
2017-Oct-10 17:01N 33°44' W 118°17'0 0.0
2017-Oct-10 16:30N 33°44' W 118°17'0 0.0
2017-Oct-10 16:01N 33°44' W 118°17'0 0.0
2017-Oct-10 15:31N 33°44' W 118°17'0 0.0
2017-Oct-10 15:01N 33°44' W 118°17'0 0.0
2017-Oct-10 14:00N 33°44' W 118°17'0 0.0
2017-Oct-10 13:31N 33°44' W 118°17'0 0.0
2017-Oct-10 13:01N 33°44' W 118°17'0 0.0
2017-Oct-10 12:31N 33°44' W 118°17'0 0.0
2017-Oct-10 12:00N 33°44' W 118°17'0 0.0
2017-Oct-10 11:31N 33°44' W 118°17'0 0.0
2017-Oct-10 11:00N 33°44' W 118°17'0 0.0
2017-Oct-10 10:30N 33°44' W 118°17'0 0.0
2017-Oct-10 10:00N 33°44' W 118°17'0 0.0
2017-Oct-10 09:31N 33°44' W 118°17'0 0.0
2017-Oct-10 09:01N 33°44' W 118°17'0 0.0
2017-Oct-10 08:30N 33°44' W 118°17'0 0.0
2017-Oct-10 08:00N 33°44' W 118°17'0 0.0
2017-Oct-10 07:31N 33°44' W 118°17'0 0.0
2017-Oct-10 07:00N 33°44' W 118°17'0 0.0
2017-Oct-10 06:31N 33°44' W 118°17'0 0.0
2017-Oct-10 06:00N 33°44' W 118°17'0 0.0
2017-Oct-10 05:31N 33°44' W 118°17'0 0.0
2017-Oct-10 05:00N 33°44' W 118°17'0 0.0
2017-Oct-10 04:30N 33°44' W 118°17'0 0.0
2017-Oct-10 04:00N 33°44' W 118°17'0 0.0
2017-Oct-10 03:31N 33°44' W 118°17'0 0.0
2017-Oct-10 03:00N 33°44' W 118°17'0 0.0
2017-Oct-10 02:30N 33°44' W 118°17'0 0.0
2017-Oct-10 02:01N 33°44' W 118°17'0 0.0
2017-Oct-10 01:30N 33°44' W 118°17'0 0.0
2017-Oct-10 01:00N 33°44' W 118°17'0 0.0
2017-Oct-10 00:30N 33°44' W 118°17'0 0.0
2017-Oct-10 00:01N 33°44' W 118°17'0 0.0
2017-Oct-09 23:30N 33°44' W 118°17'0 0.0
2017-Oct-09 23:00N 33°44' W 118°17'0 0.0
2017-Oct-09 22:31N 33°44' W 118°17'0 0.0
2017-Oct-09 22:00N 33°44' W 118°17'0 0.0
2017-Oct-09 21:30N 33°44' W 118°17'0 0.0
2017-Oct-09 21:00N 33°44' W 118°17'0 0.0
2017-Oct-09 20:30N 33°44' W 118°17'0 0.0
2017-Oct-09 20:00N 33°44' W 118°17'0 0.0
2017-Oct-09 19:30N 33°44' W 118°17'0 0.0
2017-Oct-09 19:00N 33°44' W 118°17'0 0.0
2017-Oct-09 18:30N 33°44' W 118°17'0 0.0
2017-Oct-09 18:00N 33°44' W 118°17'0 0.0
2017-Oct-09 17:30N 33°44' W 118°17'0 0.0
2017-Oct-09 17:00N 33°44' W 118°17'0 0.0
2017-Oct-09 16:30N 33°44' W 118°17'0 0.0
2017-Oct-09 16:00N 33°44' W 118°17'0 0.0
2017-Oct-09 15:29N 33°44' W 118°17'0 0.0
2017-Oct-09 14:10N 33°44' W 118°17'0 0.0
2017-Oct-09 14:00N 33°44' W 118°17'0 0.0
2017-Oct-09 13:25N 33°44' W 118°17'0 0.0
2017-Oct-09 12:52N 33°44' W 118°17'0 0.0
2017-Oct-09 12:09N 33°44' W 118°17'0 0.0
2017-Oct-09 11:59N 33°44' W 118°17'0 0.0
2017-Oct-09 11:29N 33°44' W 118°17'0 0.0
2017-Oct-09 10:35N 33°44' W 118°17'0 0.0
2017-Oct-09 10:29N 33°44' W 118°17'0 0.0
2017-Oct-09 09:46N 33°44' W 118°17'0 0.0
2017-Oct-09 09:00N 33°44' W 118°17'0 0.0
2017-Oct-09 08:12N 33°44' W 118°17'0 0.0
2017-Oct-09 07:57N 33°44' W 118°17'0 0.0
2017-Oct-09 07:24N 33°44' W 118°17'0 0.0
2017-Oct-09 06:41N 33°44' W 118°17'0 0.0
2017-Oct-09 06:23N 33°44' W 118°17'0 0.0
2017-Oct-09 06:00N 33°44' W 118°17'0 0.0
2017-Oct-09 05:29N 33°44' W 118°17'0 0.0
2017-Oct-09 05:00N 33°44' W 118°17'0 0.0
2017-Oct-09 04:29N 33°44' W 118°17'0 0.0
2017-Oct-09 04:00N 33°44' W 118°17'0 0.0
2017-Oct-09 03:30N 33°44' W 118°17'0 0.0
2017-Oct-09 03:00N 33°44' W 118°17'0 0.0
2017-Oct-09 02:30N 33°44' W 118°17'0 0.0
2017-Oct-09 02:01N 33°44' W 118°17'  
Track history (hours):
 
Tides and Currents Weather Stations Pressure Air Temp Water Temp Dewpoint Dewpoint Depression Visibility Wind Speed Wind Dir Waves Ship Positions

Leader

Owner: Crowley Marine Services, SEATTLE, WA. More information available from US FCC via Universal Licensing System and Coast Guard Vessel Documentation Center.

Last reported at 2017-Oct-19 02:01 UTC. Time now 2017-Oct-19 02:04 UTC.
Position N 33°43' W 118°16'.

Length 30 m; draft 4.9 m.

Type: Tug. MMSI: 366760650.

Date/timePositionNaut miles runAvg speedWind from/ knotsBaromVisibWave heightAir tempDewpointWater temp
2017-Oct-19 02:01N 33°43' W 118°16'1 2.7
2017-Oct-19 01:30N 33°43' W 118°15'1 2.4
2017-Oct-19 01:01N 33°43' W 118°13'3 5.6
2017-Oct-19 00:30N 33°46' W 118°13'1 1.4
2017-Oct-19 00:01N 33°46' W 118°14'0 0.1
2017-Oct-18 23:30N 33°46' W 118°14'2 3.8
2017-Oct-18 23:00N 33°44' W 118°13'3 5.7
2017-Oct-18 22:30N 33°44' W 118°16'1 1.3
2017-Oct-18 22:00N 33°44' W 118°17'0 0.0
2017-Oct-18 21:30N 33°44' W 118°17'0 0.0
2017-Oct-18 21:00N 33°44' W 118°17'0 0.0
2017-Oct-18 20:30N 33°44' W 118°17'0 0.4
2017-Oct-18 20:00N 33°44' W 118°17'0 0.5
2017-Oct-18 19:30N 33°44' W 118°16'1 1.9
2017-Oct-18 19:00N 33°43' W 118°16'3 6.8
2017-Oct-18 18:30N 33°45' W 118°13'1 2.2
2017-Oct-18 18:00N 33°46' W 118°13'2 3.8
2017-Oct-18 17:31N 33°44' W 118°13'3 5.6
2017-Oct-18 17:00N 33°44' W 118°16'1 1.2
2017-Oct-18 16:30N 33°44' W 118°17'0 0.0
2017-Oct-18 15:59N 33°44' W 118°17'0 0.0
2017-Oct-18 15:26N 33°44' W 118°17'0 0.0
2017-Oct-18 14:58N 33°44' W 118°17'0 0.0
2017-Oct-18 13:56N 33°44' W 118°17'0 0.0
2017-Oct-18 13:30N 33°44' W 118°17'0 0.0
2017-Oct-18 13:00N 33°44' W 118°17'0 0.0
2017-Oct-18 12:21N 33°44' W 118°17'0 0.7
2017-Oct-18 12:00N 33°44' W 118°17'1 1.9
2017-Oct-18 11:30N 33°45' W 118°16'0 0.9
2017-Oct-18 10:58N 33°46' W 118°17'0 1.0
2017-Oct-18 10:30N 33°45' W 118°16'0 0.0
2017-Oct-18 10:00N 33°45' W 118°16'0 0.0
2017-Oct-18 09:30N 33°45' W 118°16'1 1.1
2017-Oct-18 09:00N 33°45' W 118°17'1 1.1
2017-Oct-18 08:30N 33°45' W 118°16'3 6.0
2017-Oct-18 08:00N 33°42' W 118°15'1 2.1
2017-Oct-18 07:30N 33°41' W 118°15'2 4.2
2017-Oct-18 07:00N 33°43' W 118°14'2 2.7
2017-Oct-18 06:20N 33°45' W 118°13'0 0.0
2017-Oct-18 05:59N 33°45' W 118°13'0 0.0
2017-Oct-18 05:28N 33°45' W 118°13'0 0.4
2017-Oct-18 05:00N 33°45' W 118°13'0 0.9
2017-Oct-18 04:28N 33°45' W 118°13'0 0.1
2017-Oct-18 04:00N 33°45' W 118°13'1 2.0
2017-Oct-18 03:30N 33°44' W 118°13'3 5.5
2017-Oct-18 03:00N 33°44' W 118°16'1 1.8
2017-Oct-18 02:30N 33°44' W 118°17'0 0.0
2017-Oct-18 01:57N 33°44' W 118°17'0 0.0
2017-Oct-18 01:23N 33°44' W 118°17'1 3.1
2017-Oct-18 01:00N 33°43' W 118°16'2 4.0
2017-Oct-18 00:30N 33°45' W 118°16'1 1.9
2017-Oct-17 23:59N 33°46' W 118°15'2 3.4
2017-Oct-17 23:30N 33°45' W 118°16'1 1.1
2017-Oct-17 22:56N 33°44' W 118°17'0 0.5
2017-Oct-17 22:27N 33°44' W 118°17'0 0.0
2017-Oct-17 21:58N 33°44' W 118°17'0 0.0
2017-Oct-17 21:30N 33°44' W 118°17'0 0.0
2017-Oct-17 21:00N 33°44' W 118°17'0 0.0
2017-Oct-17 20:29N 33°44' W 118°17'0 0.0
2017-Oct-17 19:59N 33°44' W 118°17'0 0.0
2017-Oct-17 19:30N 33°44' W 118°17'0 0.0
2017-Oct-17 19:00N 33°44' W 118°17'0 0.0
2017-Oct-17 18:30N 33°44' W 118°17'0 0.0
2017-Oct-17 18:00N 33°44' W 118°17'0 0.0
2017-Oct-17 17:30N 33°44' W 118°17'1 1.3
2017-Oct-17 17:00N 33°44' W 118°16'0 0.0
2017-Oct-17 16:27N 33°44' W 118°16'0 0.0
2017-Oct-17 15:59N 33°44' W 118°16'0 0.0
2017-Oct-17 14:59N 33°44' W 118°16'1 1.8
2017-Oct-17 14:25N 33°45' W 118°16'1 1.5
2017-Oct-17 13:48N 33°46' W 118°16'0 0.0
2017-Oct-17 13:29N 33°46' W 118°16'0 0.2
2017-Oct-17 12:49N 33°46' W 118°16'0 0.9
2017-Oct-17 12:29N 33°45' W 118°16'1 3.0
2017-Oct-17 12:00N 33°44' W 118°16'3 5.2
2017-Oct-17 11:24N 33°42' W 118°13'1 1.6
2017-Oct-17 10:51N 33°42' W 118°15'3 7.6
2017-Oct-17 10:30N 33°44' W 118°13'1 1.2
2017-Oct-17 09:53N 33°45' W 118°13'0 0.0
2017-Oct-17 09:23N 33°45' W 118°13'0 0.0
2017-Oct-17 08:51N 33°45' W 118°13'0 0.4
2017-Oct-17 07:45N 33°45' W 118°13'0 0.0
2017-Oct-17 07:27N 33°45' W 118°13'0 0.0
2017-Oct-17 07:00N 33°45' W 118°13'0 0.0
2017-Oct-17 06:30N 33°45' W 118°13'1 1.7
2017-Oct-17 05:59N 33°45' W 118°13'2 3.2
2017-Oct-17 05:30N 33°44' W 118°11'1 1.6
2017-Oct-17 05:00N 33°44' W 118°12'1 1.5
2017-Oct-17 04:30N 33°44' W 118°13'1 2.2
2017-Oct-17 04:00N 33°45' W 118°13'0 0.1
2017-Oct-17 03:29N 33°46' W 118°13'0 0.2
2017-Oct-17 02:58N 33°45' W 118°13'0 0.0
2017-Oct-17 02:15N 33°46' W 118°13'0 0.0
2017-Oct-17 01:51N 33°46' W 118°13'1 3.6
2017-Oct-17 01:27N 33°44' W 118°13'3 5.7
2017-Oct-17 01:00N 33°44' W 118°16'2 3.8
2017-Oct-17 00:30N 33°45' W 118°17'0 0.6
2017-Oct-17 00:00N 33°46' W 118°17'1 1.6
2017-Oct-16 23:30N 33°45' W 118°16'1 1.1
2017-Oct-16 22:59N 33°44' W 118°17'0 0.0
2017-Oct-16 22:30N 33°44' W 118°17'0 0.0
2017-Oct-16 22:00N 33°44' W 118°17'0 0.9
2017-Oct-16 21:30N 33°45' W 118°16'0 0.6
2017-Oct-16 21:00N 33°45' W 118°16'2 3.3
2017-Oct-16 20:31N 33°43' W 118°16'1 2.8
2017-Oct-16 20:00N 33°43' W 118°15'2 4.7
2017-Oct-16 19:30N 33°44' W 118°17'0 0.0
2017-Oct-16 19:00N 33°44' W 118°17'0 0.9
2017-Oct-16 18:30N 33°44' W 118°16'0 0.0
2017-Oct-16 18:00N 33°44' W 118°16'0 0.6
2017-Oct-16 17:30N 33°44' W 118°16'1 2.0
2017-Oct-16 17:00N 33°43' W 118°16'3 5.6
2017-Oct-16 16:30N 33°45' W 118°13'2 3.2
2017-Oct-16 16:01N 33°46' W 118°13'0 0.1
2017-Oct-16 15:30N 33°46' W 118°13'0 0.6
2017-Oct-16 14:57N 33°46' W 118°14'0 0.0
2017-Oct-16 14:30N 33°46' W 118°14'0 0.0
2017-Oct-16 13:30N 33°46' W 118°14'1 2.0
2017-Oct-16 12:50N 33°45' W 118°13'0 0.0
2017-Oct-16 11:47N 33°45' W 118°13'1 2.6
2017-Oct-16 11:16N 33°45' W 118°15'0 0.3
2017-Oct-16 10:57N 33°45' W 118°14'2 3.5
2017-Oct-16 10:29N 33°44' W 118°13'1 1.8
2017-Oct-16 09:47N 33°44' W 118°11'1 3.9
2017-Oct-16 09:29N 33°44' W 118°13'1 2.0
2017-Oct-16 08:59N 33°45' W 118°13'0 0.0
2017-Oct-16 08:28N 33°45' W 118°13'0 0.0
2017-Oct-16 08:00N 33°45' W 118°13'1 2.3
2017-Oct-16 07:30N 33°44' W 118°12'0 0.7
2017-Oct-16 06:56N 33°45' W 118°12'1 1.8
2017-Oct-16 06:30N 33°45' W 118°13'0 0.0
2017-Oct-16 06:00N 33°45' W 118°13'0 0.0
2017-Oct-16 05:30N 33°45' W 118°13'0 0.0
2017-Oct-16 05:00N 33°45' W 118°13'0 0.0
2017-Oct-16 04:30N 33°45' W 118°13'0 0.5
2017-Oct-16 03:57N 33°46' W 118°13'0 0.0
2017-Oct-16 03:30N 33°46' W 118°13'0 0.0
2017-Oct-16 03:00N 33°46' W 118°13'0 0.0
2017-Oct-16 02:30N 33°46' W 118°13'0 0.0
2017-Oct-16 01:55N 33°46' W 118°13'0 0.5
2017-Oct-16 01:30N 33°45' W 118°13'1 2.4
2017-Oct-16 01:01N 33°44' W 118°12'2 4.6
2017-Oct-16 00:28N 33°42' W 118°11'0 0.7
2017-Oct-16 00:00N 33°42' W 118°11'0 0.3
2017-Oct-15 23:30N 33°42' W 118°11'2 4.5
2017-Oct-15 23:00N 33°44' W 118°12'1 2.6
2017-Oct-15 22:30N 33°45' W 118°13'0 0.0
2017-Oct-15 22:01N 33°45' W 118°13'0 0.5
2017-Oct-15 21:29N 33°45' W 118°13'0 0.3
2017-Oct-15 20:59N 33°45' W 118°13'0 0.0
2017-Oct-15 20:30N 33°45' W 118°13'0 0.0
2017-Oct-15 20:00N 33°45' W 118°13'0 0.0
2017-Oct-15 19:30N 33°45' W 118°13'0 0.0
2017-Oct-15 19:00N 33°45' W 118°13'0 0.0
2017-Oct-15 18:30N 33°45' W 118°13'0 0.0
2017-Oct-15 17:59N 33°45' W 118°13'0 0.0
2017-Oct-15 17:30N 33°45' W 118°13'1 2.4
2017-Oct-15 16:56N 33°46' W 118°13'0 0.0
2017-Oct-15 16:29N 33°46' W 118°13'1 1.8
2017-Oct-15 16:00N 33°45' W 118°13'2 4.0
2017-Oct-15 15:30N 33°44' W 118°12'3 5.9
2017-Oct-15 14:58N 33°41' W 118°11'4 4.4
2017-Oct-15 14:00N 33°45' W 118°12'0 0.2
2017-Oct-15 13:30N 33°45' W 118°12'1 1.5
2017-Oct-15 13:00N 33°44' W 118°13'1 2.6
2017-Oct-15 12:30N 33°45' W 118°14'1 1.0
2017-Oct-15 12:01N 33°45' W 118°14'1 1.5
2017-Oct-15 11:30N 33°45' W 118°14'3 5.5
2017-Oct-15 11:00N 33°43' W 118°16'1 2.9
2017-Oct-15 10:30N 33°44' W 118°17'0 0.0
2017-Oct-15 10:01N 33°44' W 118°17'0 0.0
2017-Oct-15 09:30N 33°44' W 118°17'0 0.0
2017-Oct-15 09:01N 33°44' W 118°17'0 0.0
2017-Oct-15 08:30N 33°44' W 118°17'0 0.0
2017-Oct-15 08:01N 33°44' W 118°17'0 0.0
2017-Oct-15 07:30N 33°44' W 118°17'0 0.0
2017-Oct-15 07:00N 33°44' W 118°17'0 0.0
2017-Oct-15 06:31N 33°44' W 118°17'0 0.0
2017-Oct-15 06:00N 33°44' W 118°17'0 0.0
2017-Oct-15 05:31N 33°44' W 118°17'0 0.0
2017-Oct-15 05:00N 33°44' W 118°17'0 0.0
2017-Oct-15 04:30N 33°44' W 118°17'2 4.7
2017-Oct-15 04:00N 33°43' W 118°14'3 5.5
2017-Oct-15 03:31N 33°45' W 118°13'0 0.2
2017-Oct-15 03:00N 33°46' W 118°13'0 0.0
2017-Oct-15 02:30N 33°46' W 118°13'0 0.0
2017-Oct-15 02:01N 33°46' W 118°13'0 0.0
2017-Oct-15 01:30N 33°46' W 118°13'0 0.2
2017-Oct-15 01:00N 33°45' W 118°13'1 1.4
2017-Oct-15 00:31N 33°45' W 118°13'2 4.1
2017-Oct-15 00:00N 33°43' W 118°11'1 1.9
2017-Oct-14 23:30N 33°43' W 118°11'1 1.0
2017-Oct-14 22:58N 33°42' W 118°11'3 7.0
2017-Oct-14 22:31N 33°43' W 118°15'2 4.2
2017-Oct-14 22:01N 33°44' W 118°17'0 0.0
2017-Oct-14 21:30N 33°44' W 118°17'0 0.0
2017-Oct-14 21:00N 33°44' W 118°17'0 0.0
2017-Oct-14 20:30N 33°44' W 118°17'0 0.0
2017-Oct-14 20:00N 33°44' W 118°17'0 0.0
2017-Oct-14 19:30N 33°44' W 118°17'0 0.0
2017-Oct-14 19:01N 33°44' W 118°17'0 0.0
2017-Oct-14 18:30N 33°44' W 118°17'0 0.0
2017-Oct-14 17:59N 33°44' W 118°17'0 0.0
2017-Oct-14 17:30N 33°44' W 118°17'0 0.0
2017-Oct-14 17:00N 33°44' W 118°17'0 0.0
2017-Oct-14 16:30N 33°44' W 118°17'0 0.0
2017-Oct-14 16:01N 33°44' W 118°17'0 0.0
2017-Oct-14 15:30N 33°44' W 118°17'0 0.0
2017-Oct-14 14:59N 33°44' W 118°17'0 0.0
2017-Oct-14 14:30N 33°44' W 118°17'0 0.0
2017-Oct-14 14:00N 33°44' W 118°17'0 0.0
2017-Oct-14 13:29N 33°44' W 118°17'0 0.0
2017-Oct-14 13:01N 33°44' W 118°17'0 0.0
2017-Oct-14 12:31N 33°44' W 118°17'0 0.0
2017-Oct-14 12:00N 33°44' W 118°17'0 0.0
2017-Oct-14 11:30N 33°44' W 118°17'0 0.0
2017-Oct-14 11:00N 33°44' W 118°17'0 0.0
2017-Oct-14 10:30N 33°44' W 118°17'0 0.0
2017-Oct-14 10:00N 33°44' W 118°17'0 0.0
2017-Oct-14 09:30N 33°44' W 118°17'0 0.0
2017-Oct-14 09:00N 33°44' W 118°17'0 0.0
2017-Oct-14 08:31N 33°44' W 118°17'0 0.0
2017-Oct-14 08:00N 33°44' W 118°17'0 0.0
2017-Oct-14 07:31N 33°44' W 118°17'0 0.0
2017-Oct-14 07:00N 33°44' W 118°17'0 0.0
2017-Oct-14 06:31N 33°44' W 118°17'0 0.0
2017-Oct-14 06:01N 33°44' W 118°17'0 0.0
2017-Oct-14 05:31N 33°44' W 118°17'0 0.0
2017-Oct-14 05:00N 33°44' W 118°17'0 0.0
2017-Oct-14 04:30N 33°44' W 118°17'0 0.0
2017-Oct-14 04:00N 33°44' W 118°17'0 0.0
2017-Oct-14 03:30N 33°44' W 118°17'0 0.0
2017-Oct-14 03:00N 33°44' W 118°17'0 0.0
2017-Oct-14 02:31N 33°44' W 118°17'0 0.0
2017-Oct-14 02:00N 33°44' W 118°17'0 0.0
2017-Oct-14 01:30N 33°44' W 118°17'0 0.0
2017-Oct-14 01:01N 33°44' W 118°17'0 0.0
2017-Oct-14 00:30N 33°44' W 118°17'0 0.0
2017-Oct-14 00:00N 33°44' W 118°17'0 0.0
2017-Oct-13 23:30N 33°44' W 118°17'0 0.0
2017-Oct-13 23:01N 33°44' W 118°17'0 0.0
2017-Oct-13 22:28N 33°44' W 118°17'0 0.0
2017-Oct-13 22:01N 33°44' W 118°17'0 0.0
2017-Oct-13 21:30N 33°44' W 118°17'0 0.0
2017-Oct-13 21:00N 33°44' W 118°17'0 0.0
2017-Oct-13 20:28N 33°44' W 118°17'0 0.0
2017-Oct-13 20:00N 33°44' W 118°17'0 0.0
2017-Oct-13 19:29N 33°44' W 118°17'0 0.0
2017-Oct-13 19:00N 33°44' W 118°17'0 0.0
2017-Oct-13 18:30N 33°44' W 118°17'0 1.0
2017-Oct-13 18:00N 33°44' W 118°16'0 0.7
2017-Oct-13 17:30N 33°44' W 118°17'2 3.4
2017-Oct-13 17:00N 33°46' W 118°16'0 0.1
2017-Oct-13 16:30N 33°46' W 118°16'1 1.1
2017-Oct-13 16:00N 33°45' W 118°16'1 2.1
2017-Oct-13 15:30N 33°44' W 118°17'0 0.3
2017-Oct-13 15:00N 33°44' W 118°17'0 0.0
2017-Oct-13 14:30N 33°44' W 118°17'0 0.0
2017-Oct-13 14:00N 33°44' W 118°17'1 2.1
2017-Oct-13 13:30N 33°43' W 118°16'2 3.3
2017-Oct-13 13:01N 33°45' W 118°16'0 0.5
2017-Oct-13 12:30N 33°45' W 118°16'0 0.3
2017-Oct-13 12:01N 33°45' W 118°16'1 1.4
2017-Oct-13 11:30N 33°44' W 118°17'0 0.0
2017-Oct-13 11:00N 33°44' W 118°17'2 4.1
2017-Oct-13 10:31N 33°43' W 118°15'4 8.7
2017-Oct-13 10:00N 33°44' W 118°10'2 4.4
2017-Oct-13 09:31N 33°44' W 118°12'3 6.5
2017-Oct-13 09:01N 33°44' W 118°16'0 0.5
2017-Oct-13 08:30N 33°44' W 118°16'0 0.2
2017-Oct-13 07:58N 33°44' W 118°17'0 0.5
2017-Oct-13 07:30N 33°44' W 118°17'0 0.0
2017-Oct-13 07:01N 33°44' W 118°17'0 0.0
2017-Oct-13 06:30N 33°44' W 118°17'0 0.0
2017-Oct-13 06:00N 33°44' W 118°17'0 0.0
2017-Oct-13 05:30N 33°44' W 118°17'0 0.0
2017-Oct-13 05:00N 33°44' W 118°17'0 0.0
2017-Oct-13 04:30N 33°44' W 118°17'0 0.0
2017-Oct-13 04:01N 33°44' W 118°17'0 0.0
2017-Oct-13 03:30N 33°44' W 118°17'0 0.0
2017-Oct-13 03:01N 33°44' W 118°17'0 0.0
2017-Oct-13 02:31N 33°44' W 118°17'0 0.0
2017-Oct-13 02:00N 33°44' W 118°17'0 0.0
2017-Oct-13 01:30N 33°44' W 118°17'0 0.0
2017-Oct-13 00:59N 33°44' W 118°17'0 0.0
2017-Oct-13 00:30N 33°44' W 118°17'0 0.0
2017-Oct-12 23:59N 33°44' W 118°17'0 0.0
2017-Oct-12 23:30N 33°44' W 118°17'0 0.0
2017-Oct-12 23:00N 33°44' W 118°17'0 0.0
2017-Oct-12 22:29N 33°44' W 118°17'0 0.0
2017-Oct-12 22:00N 33°44' W 118°17'0 0.0
2017-Oct-12 21:30N 33°44' W 118°17'0 0.0
2017-Oct-12 21:00N 33°44' W 118°17'0 0.0
2017-Oct-12 20:30N 33°44' W 118°17'0 0.0
2017-Oct-12 19:59N 33°44' W 118°17'0 0.0
2017-Oct-12 19:30N 33°44' W 118°17'0 0.0
2017-Oct-12 18:57N 33°44' W 118°17'0 0.0
2017-Oct-12 18:28N 33°44' W 118°17'0 0.0
2017-Oct-12 18:00N 33°44' W 118°17'0 0.0
2017-Oct-12 17:30N 33°44' W 118°17'0 0.0
2017-Oct-12 17:00N 33°44' W 118°17'0 0.0
2017-Oct-12 16:28N 33°44' W 118°17'0 0.0
2017-Oct-12 16:01N 33°44' W 118°17'0 0.0
2017-Oct-12 15:30N 33°44' W 118°17'0 0.0
2017-Oct-12 15:00N 33°44' W 118°17'0 0.0
2017-Oct-12 14:29N 33°44' W 118°17'0 0.0
2017-Oct-12 14:00N 33°44' W 118°17'0 0.0
2017-Oct-12 13:29N 33°44' W 118°17'0 0.0
2017-Oct-12 13:01N 33°44' W 118°17'0 0.0
2017-Oct-12 12:28N 33°44' W 118°17'0 0.0
2017-Oct-12 12:00N 33°44' W 118°17'0 0.0
2017-Oct-12 11:29N 33°44' W 118°17'0 0.0
2017-Oct-12 11:00N 33°44' W 118°17'0 0.0
2017-Oct-12 10:31N 33°44' W 118°17'0 0.0
2017-Oct-12 10:00N 33°44' W 118°17'0 0.0
2017-Oct-12 09:30N 33°44' W 118°17'0 0.0
2017-Oct-12 09:00N 33°44' W 118°17'0 0.0
2017-Oct-12 08:26N 33°44' W 118°17'0 0.0
2017-Oct-12 08:01N 33°44' W 118°17'0 0.0
2017-Oct-12 07:30N 33°44' W 118°17'0 0.0
2017-Oct-12 07:01N 33°44' W 118°17'0 0.0
2017-Oct-12 06:30N 33°44' W 118°17'0 0.0
2017-Oct-12 06:01N 33°44' W 118°17'0 0.0
2017-Oct-12 05:29N 33°44' W 118°17'0 0.0
2017-Oct-12 05:01N 33°44' W 118°17'0 0.0
2017-Oct-12 04:30N 33°44' W 118°17'0 0.0
2017-Oct-12 03:58N 33°44' W 118°17'0 0.0
2017-Oct-12 03:30N 33°44' W 118°17'0 0.0
2017-Oct-12 03:00N 33°44' W 118°17'0 0.0
2017-Oct-12 02:27N 33°44' W 118°17'0 0.0
2017-Oct-12 02:01N 33°44' W 118°17'0 0.0
2017-Oct-12 01:30N 33°44' W 118°17'0 0.0
2017-Oct-12 01:00N 33°44' W 118°17'0 0.0
2017-Oct-12 00:31N 33°44' W 118°17'0 0.0
2017-Oct-11 23:59N 33°44' W 118°17'0 0.0
2017-Oct-11 23:30N 33°44' W 118°17'0 0.0
2017-Oct-11 23:00N 33°44' W 118°17'0 0.0
2017-Oct-11 22:30N 33°44' W 118°17'0 0.0
2017-Oct-11 22:01N 33°44' W 118°17'0 0.0
2017-Oct-11 21:30N 33°44' W 118°17'0 0.0
2017-Oct-11 21:01N 33°44' W 118°17'0 0.0
2017-Oct-11 20:30N 33°44' W 118°17'0 0.0
2017-Oct-11 20:01N 33°44' W 118°17'0 0.0
2017-Oct-11 19:31N 33°44' W 118°17'0 0.0
2017-Oct-11 19:00N 33°44' W 118°17'0 0.0
2017-Oct-11 18:30N 33°44' W 118°17'0 0.0
2017-Oct-11 18:00N 33°44' W 118°17'0 0.0
2017-Oct-11 17:30N 33°44' W 118°17'0 0.0
2017-Oct-11 17:00N 33°44' W 118°17'0 0.0
2017-Oct-11 00:01N 33°44' W 118°17'0 0.0
2017-Oct-10 23:30N 33°44' W 118°17'0 0.0
2017-Oct-10 23:00N 33°44' W 118°17'0 0.0
2017-Oct-10 22:30N 33°44' W 118°17'0 0.0
2017-Oct-10 22:00N 33°44' W 118°17'0 0.0
2017-Oct-10 21:31N 33°44' W 118°17'0 0.0
2017-Oct-10 21:00N 33°44' W 118°17'0 0.0
2017-Oct-10 20:30N 33°44' W 118°17'0 0.0
2017-Oct-10 20:00N 33°44' W 118°17'0 0.0
2017-Oct-10 19:31N 33°44' W 118°17'0 0.0
2017-Oct-10 19:01N 33°44' W 118°17'0 0.0
2017-Oct-10 18:31N 33°44' W 118°17'0 0.0
2017-Oct-10 18:00N 33°44' W 118°17'0 0.0
2017-Oct-10 17:30N 33°44' W 118°17'0 0.0
2017-Oct-10 17:01N 33°44' W 118°17'0 0.0
2017-Oct-10 16:30N 33°44' W 118°17'0 0.0
2017-Oct-10 16:01N 33°44' W 118°17'0 0.0
2017-Oct-10 15:31N 33°44' W 118°17'0 0.0
2017-Oct-10 15:01N 33°44' W 118°17'0 0.0
2017-Oct-10 14:00N 33°44' W 118°17'0 0.0
2017-Oct-10 13:31N 33°44' W 118°17'0 0.0
2017-Oct-10 13:01N 33°44' W 118°17'0 0.0
2017-Oct-10 12:31N 33°44' W 118°17'0 0.0
2017-Oct-10 12:00N 33°44' W 118°17'0 0.0
2017-Oct-10 11:31N 33°44' W 118°17'0 0.0
2017-Oct-10 11:00N 33°44' W 118°17'0 0.0
2017-Oct-10 10:30N 33°44' W 118°17'0 0.0
2017-Oct-10 10:00N 33°44' W 118°17'0 0.0
2017-Oct-10 09:31N 33°44' W 118°17'0 0.0
2017-Oct-10 09:01N 33°44' W 118°17'0 0.0
2017-Oct-10 08:30N 33°44' W 118°17'0 0.0
2017-Oct-10 08:00N 33°44' W 118°17'0 0.0
2017-Oct-10 07:31N 33°44' W 118°17'0 0.0
2017-Oct-10 07:00N 33°44' W 118°17'0 0.0
2017-Oct-10 06:31N 33°44' W 118°17'0 0.0
2017-Oct-10 06:00N 33°44' W 118°17'0 0.0
2017-Oct-10 05:31N 33°44' W 118°17'0 0.0
2017-Oct-10 05:00N 33°44' W 118°17'0 0.0
2017-Oct-10 04:30N 33°44' W 118°17'0 0.0
2017-Oct-10 04:00N 33°44' W 118°17'0 0.0
2017-Oct-10 03:31N 33°44' W 118°17'0 0.0
2017-Oct-10 03:00N 33°44' W 118°17'0 0.0
2017-Oct-10 02:30N 33°44' W 118°17'0 0.0
2017-Oct-10 02:01N 33°44' W 118°17'0 0.0
2017-Oct-10 01:30N 33°44' W 118°17'0 0.0
2017-Oct-10 01:00N 33°44' W 118°17'0 0.0
2017-Oct-10 00:30N 33°44' W 118°17'0 0.0
2017-Oct-10 00:01N 33°44' W 118°17'0 0.0
2017-Oct-09 23:30N 33°44' W 118°17'0 0.0
2017-Oct-09 23:00N 33°44' W 118°17'0 0.0
2017-Oct-09 22:31N 33°44' W 118°17'0 0.0
2017-Oct-09 22:00N 33°44' W 118°17'0 0.0
2017-Oct-09 21:30N 33°44' W 118°17'0 0.0
2017-Oct-09 21:00N 33°44' W 118°17'0 0.0
2017-Oct-09 20:30N 33°44' W 118°17'0 0.0
2017-Oct-09 20:00N 33°44' W 118°17'0 0.0
2017-Oct-09 19:30N 33°44' W 118°17'0 0.0
2017-Oct-09 19:00N 33°44' W 118°17'0 0.0
2017-Oct-09 18:30N 33°44' W 118°17'0 0.0
2017-Oct-09 18:00N 33°44' W 118°17'0 0.0
2017-Oct-09 17:30N 33°44' W 118°17'0 0.0
2017-Oct-09 17:00N 33°44' W 118°17'0 0.0
2017-Oct-09 16:30N 33°44' W 118°17'0 0.0
2017-Oct-09 16:00N 33°44' W 118°17'0 0.0
2017-Oct-09 15:29N 33°44' W 118°17'0 0.0
2017-Oct-09 14:10N 33°44' W 118°17'0 0.0
2017-Oct-09 14:00N 33°44' W 118°17'0 0.0
2017-Oct-09 13:25N 33°44' W 118°17'0 0.0
2017-Oct-09 12:52N 33°44' W 118°17'0 0.0
2017-Oct-09 12:09N 33°44' W 118°17'0 0.0
2017-Oct-09 11:59N 33°44' W 118°17'0 0.0
2017-Oct-09 11:29N 33°44' W 118°17'0 0.0
2017-Oct-09 10:35N 33°44' W 118°17'0 0.0
2017-Oct-09 10:29N 33°44' W 118°17'0 0.0
2017-Oct-09 09:46N 33°44' W 118°17'0 0.0
2017-Oct-09 09:00N 33°44' W 118°17'0 0.0
2017-Oct-09 08:12N 33°44' W 118°17'0 0.0
2017-Oct-09 07:57N 33°44' W 118°17'0 0.0
2017-Oct-09 07:24N 33°44' W 118°17'0 0.0
2017-Oct-09 06:41N 33°44' W 118°17'0 0.0
2017-Oct-09 06:23N 33°44' W 118°17'0 0.0
2017-Oct-09 06:00N 33°44' W 118°17'0 0.0
2017-Oct-09 05:29N 33°44' W 118°17'0 0.0
2017-Oct-09 05:00N 33°44' W 118°17'0 0.0
2017-Oct-09 04:29N 33°44' W 118°17'0 0.0
2017-Oct-09 04:00N 33°44' W 118°17'0 0.0
2017-Oct-09 03:30N 33°44' W 118°17'0 0.0
2017-Oct-09 03:00N 33°44' W 118°17'0 0.0
2017-Oct-09 02:30N 33°44' W 118°17'0 0.0
2017-Oct-09 02:01N 33°44' W 118°17'  

Dump ship's entire track history